createdAt,value
2023-12-09T00:00:39.296Z,98996.50
2023-12-09T00:03:08.072Z,98988.50
2023-12-09T00:05:34.880Z,98989.00
2023-12-09T00:08:02.663Z,98990.81
2023-12-09T00:10:29.213Z,98998.31
2023-12-09T00:12:56.003Z,98992.63
2023-12-09T00:15:22.490Z,98992.75
2023-12-09T00:17:49.151Z,98999.16
2023-12-09T00:20:16.322Z,99000.50
2023-12-09T00:22:43.029Z,99016.47
2023-12-09T00:25:09.521Z,99012.94
2023-12-09T00:27:36.046Z,99012.63
2023-12-09T00:30:02.578Z,99011.97
2023-12-09T00:32:29.468Z,98999.91
2023-12-09T00:34:56.041Z,99005.84
2023-12-09T00:37:22.565Z,99002.31
2023-12-09T00:39:49.005Z,99004.84
2023-12-09T00:42:15.486Z,98994.94
2023-12-09T00:44:42.078Z,98992.63
2023-12-09T00:47:08.462Z,98993.00
2023-12-09T00:49:35.280Z,99003.88
2023-12-09T00:52:01.767Z,99007.91
2023-12-09T00:54:28.386Z,99009.94
2023-12-09T00:56:54.953Z,99016.22
2023-12-09T00:59:21.460Z,99016.72
2023-12-09T01:01:48.877Z,99015.50
2023-12-09T01:04:15.743Z,99019.38
2023-12-09T01:06:42.307Z,99014.44
2023-12-09T01:09:08.743Z,99020.09
2023-12-09T01:11:35.301Z,99019.16
2023-12-09T01:14:01.757Z,99032.06
2023-12-09T01:16:28.382Z,99020.59
2023-12-09T01:18:54.930Z,99028.31
2023-12-09T01:21:21.565Z,99028.94
2023-12-09T01:23:48.450Z,99021.09
2023-12-09T01:26:15.072Z,99033.41
2023-12-09T01:28:41.460Z,99033.19
2023-12-09T01:31:07.965Z,99027.13
2023-12-09T01:33:34.539Z,99036.44
2023-12-09T01:36:01.159Z,99040.94
2023-12-09T01:38:27.622Z,99043.81
2023-12-09T01:40:57.715Z,99031.84
2023-12-09T01:43:27.123Z,99027.47
2023-12-09T01:45:56.529Z,99027.63
2023-12-09T01:48:23.953Z,99027.84
2023-12-09T01:50:51.043Z,99032.94
2023-12-09T01:53:17.643Z,99023.38
2023-12-09T01:55:44.368Z,99009.44
2023-12-09T01:58:11.778Z,99015.25
2023-12-09T02:00:40.237Z,99018.66
2023-12-09T02:03:07.030Z,99028.81
2023-12-09T02:05:33.610Z,99016.59
2023-12-09T02:08:00.224Z,99010.06
2023-12-09T02:10:27.603Z,99016.13
2023-12-09T02:13:04.929Z,99016.09
2023-12-09T02:15:40.188Z,99015.50
2023-12-09T02:18:08.682Z,99019.97
2023-12-09T02:20:35.777Z,99008.38
2023-12-09T02:23:09.510Z,99004.13
2023-12-09T02:25:37.386Z,99004.63
2023-12-09T02:28:09.847Z,99004.38
2023-12-09T02:31:00.538Z,98993.34
2023-12-09T02:33:27.509Z,98998.69
2023-12-09T02:35:56.305Z,98982.34
2023-12-09T02:38:24.256Z,98966.88
2023-12-09T02:40:51.709Z,98964.56
2023-12-09T02:43:18.485Z,98973.41
2023-12-09T02:45:48.339Z,98975.44
2023-12-09T02:48:14.981Z,98965.13
2023-12-09T02:50:41.719Z,98965.16
2023-12-09T02:53:08.159Z,98967.31
2023-12-09T02:55:34.767Z,98954.25
2023-12-09T02:58:01.183Z,98952.75
2023-12-09T03:00:27.801Z,98949.38
2023-12-09T03:02:54.518Z,98952.53
2023-12-09T03:05:21.063Z,98956.25
2023-12-09T03:07:47.478Z,98966.72
2023-12-09T03:10:13.879Z,98964.78
2023-12-09T03:12:40.940Z,98963.59
2023-12-09T03:15:07.925Z,98953.31
2023-12-09T03:17:36.115Z,98959.06
2023-12-09T03:20:04.060Z,98956.91
2023-12-09T03:22:30.789Z,98952.13
2023-12-09T03:24:57.220Z,98958.31
2023-12-09T03:27:23.752Z,98946.81
2023-12-09T03:29:50.148Z,98954.34
2023-12-09T03:32:16.709Z,98951.91
2023-12-09T03:34:45.003Z,98952.91
2023-12-09T03:37:11.811Z,98949.16
2023-12-09T03:39:38.226Z,98944.66
2023-12-09T03:42:04.895Z,98949.97
2023-12-09T03:44:31.881Z,98937.69
2023-12-09T03:46:58.537Z,98939.34
2023-12-09T03:49:25.005Z,98932.81
2023-12-09T03:51:51.547Z,98931.09
2023-12-09T03:54:17.956Z,98932.38
2023-12-09T03:56:45.728Z,98931.97
2023-12-09T03:59:12.706Z,98937.41
2023-12-09T04:01:47.908Z,98939.66
2023-12-09T04:04:14.387Z,98931.91
2023-12-09T04:06:41.129Z,98946.78
2023-12-09T04:09:07.669Z,98927.59
2023-12-09T04:11:34.428Z,98945.38
2023-12-09T04:14:00.896Z,98919.03
2023-12-09T04:16:27.305Z,98943.34
2023-12-09T04:18:53.966Z,98912.03
2023-12-09T04:21:20.500Z,98926.84
2023-12-09T04:23:47.226Z,98912.66
2023-12-09T04:26:13.907Z,98909.38
2023-12-09T04:28:41.136Z,98909.09
2023-12-09T04:31:07.706Z,98924.19
2023-12-09T04:33:34.148Z,98915.19
2023-12-09T04:36:00.803Z,98913.66
2023-12-09T04:38:27.205Z,98907.13
2023-12-09T04:40:53.797Z,98898.81
2023-12-09T04:43:20.196Z,98899.00
2023-12-09T04:45:46.694Z,98900.63
2023-12-09T04:48:13.200Z,98882.94
2023-12-09T04:50:39.806Z,98882.56
2023-12-09T04:53:06.274Z,98880.38
2023-12-09T04:55:32.700Z,98877.00
2023-12-09T04:57:59.360Z,98875.94
2023-12-09T05:00:25.796Z,98878.84
2023-12-09T05:02:52.541Z,98878.72
2023-12-09T05:05:21.229Z,98884.53
2023-12-09T05:07:47.712Z,98880.28
2023-12-09T05:10:14.139Z,98894.56
2023-12-09T05:12:41.363Z,98888.53
2023-12-09T05:15:08.352Z,98885.03
2023-12-09T05:17:35.179Z,98877.75
2023-12-09T05:20:01.661Z,98886.44
2023-12-09T05:22:28.493Z,98883.56
2023-12-09T05:24:55.198Z,98885.22
2023-12-09T05:27:21.793Z,98878.22
2023-12-09T05:29:48.216Z,98886.69
2023-12-09T05:32:14.836Z,98887.47
2023-12-09T05:34:41.371Z,98892.56
2023-12-09T05:37:07.869Z,98877.94
2023-12-09T05:39:34.782Z,98887.84
2023-12-09T05:42:01.368Z,98884.59
2023-12-09T05:44:28.066Z,98878.16
2023-12-09T05:46:54.473Z,98888.56
2023-12-09T05:49:21.164Z,98888.56
2023-12-09T05:51:47.657Z,98882.28
2023-12-09T05:54:14.296Z,98882.06
2023-12-09T05:56:47.757Z,98884.16
2023-12-09T05:59:14.456Z,98879.56
2023-12-09T06:01:40.979Z,98887.69
2023-12-09T06:04:07.584Z,98874.41
2023-12-09T06:06:34.249Z,98869.94
2023-12-09T06:09:00.867Z,98866.94
2023-12-09T06:11:27.425Z,98868.41
2023-12-09T06:13:53.896Z,98868.25
2023-12-09T06:16:20.679Z,98852.66
2023-12-09T06:18:47.836Z,98859.78
2023-12-09T06:21:23.056Z,98855.06
2023-12-09T06:23:49.931Z,98845.50
2023-12-09T06:26:16.791Z,98854.31
2023-12-09T06:28:43.780Z,98853.47
2023-12-09T06:31:13.061Z,98866.53
2023-12-09T06:33:39.917Z,98859.63
2023-12-09T06:36:07.064Z,98860.63
2023-12-09T06:38:38.670Z,98862.78
2023-12-09T06:41:05.284Z,98859.41
2023-12-09T06:43:31.867Z,98846.13
2023-12-09T06:46:01.102Z,98845.00
2023-12-09T06:48:27.908Z,98836.94
2023-12-09T06:50:54.870Z,98840.19
2023-12-09T06:53:21.321Z,98827.97
2023-12-09T06:55:47.898Z,98827.28
2023-12-09T06:58:14.420Z,98829.69
2023-12-09T07:00:41.107Z,98828.34
2023-12-09T07:03:08.527Z,98828.25
2023-12-09T07:05:35.263Z,98835.75
2023-12-09T07:08:01.761Z,98835.25
2023-12-09T07:10:28.169Z,98822.34
2023-12-09T07:12:55.134Z,98820.88
2023-12-09T07:15:21.882Z,98811.56
2023-12-09T07:17:48.506Z,98803.34
2023-12-09T07:20:15.125Z,98809.53
2023-12-09T07:22:41.612Z,98805.53
2023-12-09T07:25:08.243Z,98797.41
2023-12-09T07:27:34.856Z,98800.19
2023-12-09T07:30:01.890Z,98806.22
2023-12-09T07:32:29.043Z,98808.03
2023-12-09T07:34:57.299Z,98819.06
2023-12-09T07:37:24.574Z,98814.56
2023-12-09T07:39:51.161Z,98822.66
2023-12-09T07:42:18.013Z,98815.19
2023-12-09T07:44:44.474Z,98797.06
2023-12-09T07:47:11.087Z,98778.72
2023-12-09T07:49:37.907Z,98784.41
2023-12-09T07:52:06.864Z,98775.84
2023-12-09T07:54:33.260Z,98771.34
2023-12-09T07:56:59.865Z,98769.78
2023-12-09T07:59:26.360Z,98759.63
2023-12-09T08:01:52.933Z,98765.53
2023-12-09T08:04:19.484Z,98749.69
2023-12-09T08:06:46.132Z,98747.66
2023-12-09T08:09:12.776Z,98739.06
2023-12-09T08:11:39.242Z,98732.56
2023-12-09T08:14:07.207Z,98725.53
2023-12-09T08:16:34.826Z,98713.47
2023-12-09T08:19:01.528Z,98713.22
2023-12-09T08:21:27.987Z,98726.75
2023-12-09T08:23:55.610Z,98704.84
2023-12-09T08:26:22.061Z,98697.63
2023-12-09T08:28:48.558Z,98693.63
2023-12-09T08:31:14.934Z,98690.91
2023-12-09T08:33:42.141Z,98691.72
2023-12-09T08:36:09.242Z,98670.66
2023-12-09T08:38:36.078Z,98654.56
2023-12-09T08:41:02.726Z,98643.69
2023-12-09T08:43:29.371Z,98647.72
2023-12-09T08:45:55.894Z,98648.31
2023-12-09T08:48:22.807Z,98644.97
2023-12-09T08:50:49.344Z,98632.13
2023-12-09T08:53:15.846Z,98617.84
2023-12-09T08:55:42.431Z,98624.34
2023-12-09T08:58:09.067Z,98641.88
2023-12-09T09:00:35.561Z,98653.94
2023-12-09T09:03:04.426Z,98657.00
2023-12-09T09:05:31.141Z,98661.22
2023-12-09T09:07:57.665Z,98647.84
2023-12-09T09:10:24.394Z,98650.66
2023-12-09T09:12:51.006Z,98649.91
2023-12-09T09:15:17.998Z,98648.00
2023-12-09T09:17:44.726Z,98635.69
2023-12-09T09:20:11.996Z,98642.41
2023-12-09T09:22:38.744Z,98651.13
2023-12-09T09:25:06.065Z,98643.69
2023-12-09T09:27:32.730Z,98646.66
2023-12-09T09:29:59.400Z,98643.88
2023-12-09T09:32:26.232Z,98649.06
2023-12-09T09:34:53.593Z,98638.41
2023-12-09T09:37:20.140Z,98636.75
2023-12-09T09:39:46.918Z,98634.97
2023-12-09T09:42:33.032Z,98622.78
2023-12-09T09:45:13.837Z,98616.44
2023-12-09T09:47:43.721Z,98615.22
2023-12-09T09:50:11.541Z,98603.69
2023-12-09T09:52:41.472Z,98589.53
2023-12-09T09:55:09.126Z,98586.06
2023-12-09T09:57:38.638Z,98582.09
2023-12-09T10:00:15.419Z,98574.81
2023-12-09T10:02:46.540Z,98555.72
2023-12-09T10:05:16.927Z,98549.81
2023-12-09T10:07:45.084Z,98544.22
2023-12-09T10:10:14.197Z,98543.63
2023-12-09T10:12:41.271Z,98530.59
2023-12-09T10:15:08.825Z,98524.81
2023-12-09T10:17:35.398Z,98504.34
2023-12-09T10:20:02.574Z,98510.22
2023-12-09T10:22:29.738Z,98505.16
2023-12-09T10:24:56.634Z,98486.22
2023-12-09T10:27:24.190Z,98473.25
2023-12-09T10:29:55.569Z,98468.91
2023-12-09T10:32:22.501Z,98454.97
2023-12-09T10:34:50.222Z,98436.19
2023-12-09T10:37:18.343Z,98435.31
2023-12-09T10:39:46.315Z,98420.09
2023-12-09T10:42:13.481Z,98418.66
2023-12-09T10:44:41.424Z,98413.44
2023-12-09T10:47:08.204Z,98400.91
2023-12-09T10:49:35.943Z,98386.94
2023-12-09T10:52:03.034Z,98382.63
2023-12-09T10:54:29.503Z,98368.41
2023-12-09T10:56:56.359Z,98370.84
2023-12-09T10:59:22.828Z,98354.91
2023-12-09T11:01:49.254Z,98351.66
2023-12-09T11:04:16.502Z,98353.59
2023-12-09T11:06:46.098Z,98349.13
2023-12-09T11:09:15.123Z,98339.34
2023-12-09T11:11:42.750Z,98330.84
2023-12-09T11:14:12.364Z,98327.88
2023-12-09T11:16:47.306Z,98320.94
2023-12-09T11:19:17.065Z,98317.94
2023-12-09T11:21:47.607Z,98318.81
2023-12-09T11:24:15.305Z,98314.75
2023-12-09T11:26:47.007Z,98319.03
2023-12-09T11:29:18.367Z,98314.28
2023-12-09T11:31:51.089Z,98316.53
2023-12-09T11:34:20.692Z,98307.41
2023-12-09T11:36:48.634Z,98302.56
2023-12-09T11:39:21.132Z,98294.00
2023-12-09T11:41:49.779Z,98273.25
2023-12-09T11:44:17.038Z,98267.41
2023-12-09T11:46:44.477Z,98248.13
2023-12-09T11:49:11.366Z,98240.44
2023-12-09T11:51:40.012Z,98235.91
2023-12-09T11:54:09.003Z,98234.09
2023-12-09T11:56:36.661Z,98227.06
2023-12-09T11:59:03.402Z,98220.28
2023-12-09T12:01:39.014Z,98220.66
2023-12-09T12:04:06.159Z,98206.69
2023-12-09T12:06:33.787Z,98195.06
2023-12-09T12:09:00.655Z,98184.63
2023-12-09T12:11:27.284Z,98173.19
2023-12-09T12:13:54.228Z,98167.84
2023-12-09T12:16:21.842Z,98157.50
2023-12-09T12:18:49.009Z,98148.75
2023-12-09T12:21:17.252Z,98135.25
2023-12-09T12:23:44.107Z,98130.50
2023-12-09T12:26:12.397Z,98127.84
2023-12-09T12:28:39.287Z,98122.97
2023-12-09T12:31:07.299Z,98112.56
2023-12-09T12:33:34.035Z,98112.03
2023-12-09T12:36:01.933Z,98113.28
2023-12-09T12:38:28.811Z,98111.06
2023-12-09T12:40:56.596Z,98117.69
2023-12-09T12:43:24.008Z,98115.72
2023-12-09T12:45:51.961Z,98109.41
2023-12-09T12:48:19.078Z,98092.63
2023-12-09T12:50:49.165Z,98065.00
2023-12-09T12:53:17.338Z,98047.94
2023-12-09T12:55:44.271Z,98034.53
2023-12-09T12:58:11.092Z,98025.56
2023-12-09T13:00:38.110Z,98015.56
2023-12-09T13:03:06.498Z,97997.34
2023-12-09T13:05:33.426Z,97988.19
2023-12-09T13:08:00.308Z,97980.56
2023-12-09T13:10:26.741Z,97978.66
2023-12-09T13:12:53.333Z,97964.50
2023-12-09T13:15:19.812Z,97948.78
2023-12-09T13:17:46.416Z,97942.31
2023-12-09T13:20:13.101Z,97941.47
2023-12-09T13:22:40.282Z,97950.25
2023-12-09T13:25:08.378Z,97934.78
2023-12-09T13:27:35.408Z,97911.88
2023-12-09T13:30:05.341Z,97897.22
2023-12-09T13:32:31.961Z,97869.50
2023-12-09T13:34:58.459Z,97871.34
2023-12-09T13:37:25.974Z,97876.69
2023-12-09T13:39:52.769Z,97867.28
2023-12-09T13:42:19.494Z,97854.63
2023-12-09T13:44:45.953Z,97832.47
2023-12-09T13:47:14.010Z,97824.47
2023-12-09T13:49:42.531Z,97824.63
2023-12-09T13:52:09.451Z,97821.13
2023-12-09T13:54:36.701Z,97796.31
2023-12-09T13:57:03.587Z,97796.09
2023-12-09T13:59:30.071Z,97784.22
2023-12-09T14:01:57.585Z,97786.06
2023-12-09T14:04:24.309Z,97764.72
2023-12-09T14:06:50.896Z,97769.53
2023-12-09T14:09:18.678Z,97771.19
2023-12-09T14:11:45.325Z,97762.28
2023-12-09T14:14:11.821Z,97769.28
2023-12-09T14:16:38.489Z,97760.75
2023-12-09T14:19:05.178Z,97760.75
2023-12-09T14:21:31.884Z,97729.78
2023-12-09T14:23:58.339Z,97724.16
2023-12-09T14:26:25.918Z,97719.13
2023-12-09T14:28:52.527Z,97732.09
2023-12-09T14:31:19.428Z,97716.09
2023-12-09T14:33:45.966Z,97708.72
2023-12-09T14:36:12.703Z,97713.59
2023-12-09T14:38:39.291Z,97698.13
2023-12-09T14:41:06.021Z,97683.63
2023-12-09T14:43:32.557Z,97670.44
2023-12-09T14:45:59.031Z,97662.97
2023-12-09T14:48:26.893Z,97670.91
2023-12-09T14:50:57.167Z,97659.44
2023-12-09T14:53:23.758Z,97656.75
2023-12-09T14:55:50.334Z,97648.25
2023-12-09T14:58:17.154Z,97634.41
2023-12-09T15:00:43.693Z,97612.59
2023-12-09T15:03:10.545Z,97614.03
2023-12-09T15:05:37.525Z,97612.75
2023-12-09T15:08:04.380Z,97600.41
2023-12-09T15:10:31.633Z,97592.25
2023-12-09T15:12:58.170Z,97580.94
2023-12-09T15:15:24.903Z,97552.78
2023-12-09T15:17:51.475Z,97552.06
2023-12-09T15:20:18.024Z,97541.09
2023-12-09T15:22:47.167Z,97523.13
2023-12-09T15:25:14.900Z,97521.63
2023-12-09T15:27:41.657Z,97520.09
2023-12-09T15:30:09.381Z,97508.09
2023-12-09T15:32:36.641Z,97500.41
2023-12-09T15:35:03.198Z,97500.72
2023-12-09T15:37:29.917Z,97498.56
2023-12-09T15:39:56.440Z,97485.09
2023-12-09T15:42:23.250Z,97471.44
2023-12-09T15:44:50.193Z,97459.66
2023-12-09T15:47:16.949Z,97443.19
2023-12-09T15:49:43.538Z,97445.66
2023-12-09T15:52:10.525Z,97447.81
2023-12-09T15:54:36.980Z,97444.50
2023-12-09T15:57:04.474Z,97434.50
2023-12-09T15:59:31.550Z,97411.78
2023-12-09T16:01:58.266Z,97403.94
2023-12-09T16:04:24.776Z,97394.28
2023-12-09T16:06:51.345Z,97404.94
2023-12-09T16:09:17.989Z,97392.91
2023-12-09T16:11:44.613Z,97386.94
2023-12-09T16:14:11.109Z,97382.63
2023-12-09T16:16:37.842Z,97379.63
2023-12-09T16:19:04.548Z,97371.81
2023-12-09T16:21:31.269Z,97366.63
2023-12-09T16:23:58.075Z,97358.66
2023-12-09T16:26:24.714Z,97353.00
2023-12-09T16:28:51.155Z,97349.00
2023-12-09T16:31:17.890Z,97359.66
2023-12-09T16:33:44.779Z,97352.97
2023-12-09T16:36:11.996Z,97355.84
2023-12-09T16:38:38.625Z,97345.34
2023-12-09T16:41:05.288Z,97338.84
2023-12-09T16:43:33.684Z,97341.00
2023-12-09T16:46:00.517Z,97323.88
2023-12-09T16:48:27.319Z,97329.34
2023-12-09T16:50:53.819Z,97315.53
2023-12-09T16:53:20.639Z,97337.19
2023-12-09T16:55:47.250Z,97329.72
2023-12-09T16:58:14.013Z,97323.38
2023-12-09T17:00:40.675Z,97322.72
2023-12-09T17:03:07.555Z,97334.34
2023-12-09T17:05:34.499Z,97325.03
2023-12-09T17:08:01.180Z,97324.53
2023-12-09T17:10:27.829Z,97303.06
2023-12-09T17:12:54.380Z,97303.06
2023-12-09T17:15:20.938Z,97308.56
2023-12-09T17:17:47.774Z,97279.09
2023-12-09T17:20:14.341Z,97257.97
2023-12-09T17:22:41.146Z,97253.28
2023-12-09T17:25:08.563Z,97253.47
2023-12-09T17:27:36.820Z,97267.09
2023-12-09T17:30:03.731Z,97274.09
2023-12-09T17:32:30.533Z,97282.91
2023-12-09T17:34:57.114Z,97285.75
2023-12-09T17:37:23.861Z,97276.44
2023-12-09T17:39:50.430Z,97275.59
2023-12-09T17:42:17.234Z,97276.78
2023-12-09T17:44:43.712Z,97271.59
2023-12-09T17:47:10.255Z,97270.59
2023-12-09T17:49:36.827Z,97274.44
2023-12-09T17:52:03.647Z,97262.28
2023-12-09T17:54:30.396Z,97240.97
2023-12-09T17:56:56.930Z,97258.13
2023-12-09T17:59:24.593Z,97246.78
2023-12-09T18:01:51.021Z,97247.47
2023-12-09T18:04:17.683Z,97252.78
2023-12-09T18:06:44.333Z,97240.13
2023-12-09T18:09:13.213Z,97237.47
2023-12-09T18:11:40.384Z,97229.81
2023-12-09T18:14:07.032Z,97231.63
2023-12-09T18:16:33.556Z,97242.13
2023-12-09T18:19:00.251Z,97238.28
2023-12-09T18:21:27.115Z,97233.28
2023-12-09T18:23:55.239Z,97235.13
2023-12-09T18:26:21.824Z,97230.47
2023-12-09T18:28:48.576Z,97227.78
2023-12-09T18:31:15.096Z,97234.13
2023-12-09T18:33:42.370Z,97242.09
2023-12-09T18:36:09.505Z,97256.09
2023-12-09T18:38:36.294Z,97247.94
2023-12-09T18:41:04.223Z,97252.91
2023-12-09T18:43:31.194Z,97254.59
2023-12-09T18:45:57.718Z,97255.09
2023-12-09T18:48:26.859Z,97264.06
2023-12-09T18:50:56.201Z,97254.59
2023-12-09T18:53:24.134Z,97256.06
2023-12-09T18:55:50.714Z,97252.09
2023-12-09T18:58:17.406Z,97266.09
2023-12-09T19:00:48.113Z,97262.22
2023-12-09T19:03:19.557Z,97245.91
2023-12-09T19:05:46.366Z,97259.06
2023-12-09T19:08:13.240Z,97262.44
2023-12-09T19:10:40.152Z,97271.25
2023-12-09T19:13:06.667Z,97274.72
2023-12-09T19:15:33.168Z,97262.06
2023-12-09T19:17:59.870Z,97273.56
2023-12-09T19:20:26.414Z,97271.06
2023-12-09T19:22:53.454Z,97276.91
2023-12-09T19:25:19.880Z,97274.22
2023-12-09T19:27:46.759Z,97282.88
2023-12-09T19:30:15.012Z,97274.38
2023-12-09T19:32:41.850Z,97271.72
2023-12-09T19:35:08.800Z,97277.06
2023-12-09T19:37:36.090Z,97276.72
2023-12-09T19:40:03.430Z,97259.53
2023-12-09T19:42:31.511Z,97273.69
2023-12-09T19:44:58.286Z,97277.69
2023-12-09T19:47:24.766Z,97290.19
2023-12-09T19:49:51.487Z,97281.84
2023-12-09T19:52:18.004Z,97293.00
2023-12-09T19:54:44.727Z,97289.34
2023-12-09T19:57:11.236Z,97294.34
2023-12-09T19:59:37.942Z,97301.81
2023-12-09T20:02:04.598Z,97304.78
2023-12-09T20:04:31.284Z,97302.63
2023-12-09T20:06:57.832Z,97299.59
2023-12-09T20:09:25.702Z,97307.94
2023-12-09T20:11:52.289Z,97299.59
2023-12-09T20:14:18.958Z,97311.22
2023-12-09T20:16:45.465Z,97318.41
2023-12-09T20:19:12.225Z,97316.22
2023-12-09T20:21:38.876Z,97315.41
2023-12-09T20:24:06.039Z,97313.53
2023-12-09T20:26:32.963Z,97315.50
2023-12-09T20:29:00.229Z,97323.00
2023-12-09T20:31:26.686Z,97312.63
2023-12-09T20:33:54.400Z,97324.28
2023-12-09T20:36:21.869Z,97335.59
2023-12-09T20:38:48.565Z,97340.94
2023-12-09T20:41:15.076Z,97342.75
2023-12-09T20:43:41.919Z,97354.72
2023-12-09T20:46:08.469Z,97352.91
2023-12-09T20:48:36.280Z,97358.34
2023-12-09T20:51:03.405Z,97367.91
2023-12-09T20:53:30.396Z,97379.22
2023-12-09T20:55:56.914Z,97380.91
2023-12-09T20:58:23.595Z,97393.56
2023-12-09T21:00:50.356Z,97399.75
2023-12-09T21:03:17.183Z,97413.88
2023-12-09T21:05:43.748Z,97413.53
2023-12-09T21:08:10.532Z,97421.06
2023-12-09T21:10:37.141Z,97432.06
2023-12-09T21:13:04.133Z,97445.66
2023-12-09T21:15:31.027Z,97458.50
2023-12-09T21:17:57.580Z,97467.97
2023-12-09T21:20:24.412Z,97474.72
2023-12-09T21:22:51.652Z,97469.81
2023-12-09T21:25:18.200Z,97473.41
2023-12-09T21:27:44.751Z,97483.41
2023-12-09T21:30:11.745Z,97491.38
2023-12-09T21:32:38.351Z,97502.00
2023-12-09T21:35:06.212Z,97495.34
2023-12-09T21:37:32.680Z,97525.59
2023-12-09T21:39:59.270Z,97530.81
2023-12-09T21:42:25.820Z,97525.97
2023-12-09T21:44:53.985Z,97534.81
2023-12-09T21:47:22.623Z,97532.91
2023-12-09T21:49:49.431Z,97528.91
2023-12-09T21:52:16.033Z,97535.59
2023-12-09T21:54:42.557Z,97532.59
2023-12-09T21:57:09.281Z,97535.63
2023-12-09T21:59:36.371Z,97547.19
2023-12-09T22:02:02.979Z,97556.75
2023-12-09T22:04:29.517Z,97560.44
2023-12-09T22:06:56.054Z,97566.47
2023-12-09T22:09:22.853Z,97578.84
2023-12-09T22:11:49.463Z,97582.16
2023-12-09T22:14:16.135Z,97590.34
2023-12-09T22:16:43.147Z,97589.16
2023-12-09T22:19:09.922Z,97600.69
2023-12-09T22:21:40.503Z,97600.06
2023-12-09T22:24:08.052Z,97626.97
2023-12-09T22:26:41.380Z,97631.44
2023-12-09T22:29:08.074Z,97640.31
2023-12-09T22:31:34.507Z,97642.66
2023-12-09T22:34:03.957Z,97646.97
2023-12-09T22:36:30.526Z,97649.63
2023-12-09T22:38:57.009Z,97664.16
2023-12-09T22:41:24.167Z,97675.38
2023-12-09T22:43:51.417Z,97691.56
2023-12-09T22:46:31.423Z,97701.41
2023-12-09T22:48:59.303Z,97711.28
2023-12-09T22:51:26.440Z,97733.00
2023-12-09T22:53:53.448Z,97732.00
2023-12-09T22:56:23.756Z,97744.53
2023-12-09T22:58:51.378Z,97753.22
2023-12-09T23:01:22.879Z,97762.06
2023-12-09T23:03:49.802Z,97774.09
2023-12-09T23:06:16.985Z,97766.75
2023-12-09T23:08:44.428Z,97774.91
2023-12-09T23:11:11.385Z,97781.09
2023-12-09T23:13:37.834Z,97779.59
2023-12-09T23:16:05.007Z,97780.94
2023-12-09T23:18:33.211Z,97782.59
2023-12-09T23:21:00.015Z,97791.94
2023-12-09T23:23:26.712Z,97804.66
2023-12-09T23:25:54.347Z,97792.97
2023-12-09T23:28:20.939Z,97806.00
2023-12-09T23:30:47.610Z,97801.00
2023-12-09T23:33:14.309Z,97801.50
2023-12-09T23:35:40.996Z,97809.19
2023-12-09T23:38:09.971Z,97808.00
2023-12-09T23:40:39.512Z,97809.50
2023-12-09T23:43:06.178Z,97794.78
2023-12-09T23:45:32.897Z,97806.50
2023-12-09T23:47:59.575Z,97815.03
2023-12-09T23:50:26.672Z,97799.97
2023-12-09T23:52:53.298Z,97816.84
2023-12-09T23:55:19.865Z,97817.19
2023-12-09T23:57:46.336Z,97813.31
